createdAt,value
2023-06-22T00:00:00.363Z,4.20
2023-06-22T00:02:26.922Z,3.65
2023-06-22T00:04:53.447Z,3.67
2023-06-22T00:07:20.016Z,3.67
2023-06-22T00:09:46.764Z,3.63
2023-06-22T00:12:13.221Z,3.90
2023-06-22T00:14:39.689Z,3.70
2023-06-22T00:17:06.238Z,3.72
2023-06-22T00:19:33.601Z,4.00
2023-06-22T00:22:01.201Z,3.58
2023-06-22T00:24:27.758Z,3.60
2023-06-22T00:26:54.764Z,3.65
2023-06-22T00:29:22.166Z,3.58
2023-06-22T00:31:49.596Z,4.20
2023-06-22T00:34:17.011Z,3.60
2023-06-22T00:36:43.514Z,3.63
2023-06-22T00:39:10.832Z,3.70
2023-06-22T00:41:37.299Z,3.85
2023-06-22T00:44:05.134Z,3.78
2023-06-22T00:46:31.836Z,4.07
2023-06-22T00:49:01.020Z,3.50
2023-06-22T00:51:28.781Z,3.40
2023-06-22T00:53:55.570Z,4.38
2023-06-22T00:56:25.983Z,3.72
2023-06-22T00:58:58.222Z,3.80
2023-06-22T01:01:25.038Z,3.80
2023-06-22T01:03:52.763Z,3.92
2023-06-22T01:06:28.087Z,4.03
2023-06-22T01:09:16.205Z,3.72
2023-06-22T01:11:47.894Z,4.00
2023-06-22T01:14:27.173Z,4.13
2023-06-22T01:16:58.071Z,3.72
2023-06-22T01:19:36.805Z,3.83
2023-06-22T01:22:06.287Z,3.95
2023-06-22T01:25:10.576Z,3.80
2023-06-22T01:27:57.715Z,4.00
2023-06-22T01:30:27.509Z,3.60
2023-06-22T01:32:56.497Z,3.92
2023-06-22T01:35:26.024Z,3.50
2023-06-22T01:37:53.120Z,3.80
2023-06-22T01:40:21.061Z,3.78
2023-06-22T01:42:49.196Z,3.70
2023-06-22T01:45:16.684Z,3.47
2023-06-22T01:47:43.569Z,3.83
2023-06-22T01:50:10.640Z,4.30
2023-06-22T01:52:37.296Z,3.97
2023-06-22T01:55:05.695Z,4.30
2023-06-22T01:57:32.953Z,3.90
2023-06-22T02:00:05.779Z,4.20
2023-06-22T02:03:16.488Z,4.25
2023-06-22T02:06:08.778Z,4.47
2023-06-22T02:08:47.366Z,3.78
2023-06-22T02:11:17.605Z,3.90
2023-06-22T02:13:44.349Z,4.10
2023-06-22T02:16:12.835Z,4.55
2023-06-22T02:18:47.281Z,4.15
2023-06-22T02:21:13.782Z,4.32
2023-06-22T02:23:40.236Z,3.90
2023-06-22T02:26:06.694Z,3.90
2023-06-22T02:28:33.162Z,4.15
2023-06-22T02:30:59.698Z,4.13
2023-06-22T02:33:26.154Z,4.25
2023-06-22T02:35:52.650Z,4.25
2023-06-22T02:38:20.421Z,4.13
2023-06-22T02:40:47.590Z,3.92
2023-06-22T02:43:14.489Z,4.40
2023-06-22T02:45:40.930Z,4.10
2023-06-22T02:48:07.510Z,3.83
2023-06-22T02:50:34.656Z,4.20
2023-06-22T02:53:01.398Z,4.20
2023-06-22T02:55:30.763Z,3.90
2023-06-22T02:58:00.577Z,4.00
2023-06-22T03:00:32.029Z,3.95
2023-06-22T03:02:59.342Z,4.35
2023-06-22T03:05:25.954Z,4.00
2023-06-22T03:07:53.211Z,4.10
2023-06-22T03:10:19.687Z,3.78
2023-06-22T03:12:46.246Z,3.95
2023-06-22T03:15:13.702Z,4.10
2023-06-22T03:17:42.353Z,3.90
2023-06-22T03:20:11.353Z,4.38
2023-06-22T03:22:39.322Z,4.05
2023-06-22T03:25:11.396Z,3.80
2023-06-22T03:27:43.380Z,4.07
2023-06-22T03:30:12.576Z,4.20
2023-06-22T03:32:40.386Z,4.18
2023-06-22T03:35:07.589Z,4.20
2023-06-22T03:37:36.499Z,4.30
2023-06-22T03:40:06.257Z,4.13
2023-06-22T03:42:35.687Z,4.03
2023-06-22T03:45:04.527Z,4.32
2023-06-22T03:47:31.198Z,3.72
2023-06-22T03:49:58.998Z,4.07
2023-06-22T03:52:26.362Z,4.20
2023-06-22T03:54:53.047Z,4.40
2023-06-22T03:57:19.600Z,4.50
2023-06-22T03:59:46.155Z,4.45
2023-06-22T04:02:13.072Z,4.13
2023-06-22T04:04:40.417Z,4.30
2023-06-22T04:07:07.401Z,4.20
2023-06-22T04:09:34.152Z,4.40
2023-06-22T04:12:00.576Z,4.20
2023-06-22T04:14:27.037Z,4.40
2023-06-22T04:16:53.503Z,4.00
2023-06-22T04:19:19.979Z,4.00
2023-06-22T04:21:46.761Z,4.53
2023-06-22T04:24:13.522Z,4.32
2023-06-22T04:26:42.462Z,3.75
2023-06-22T04:29:09.771Z,4.63
2023-06-22T04:31:39.515Z,4.60
2023-06-22T04:34:07.613Z,4.70
2023-06-22T04:36:39.098Z,4.70
2023-06-22T04:39:10.908Z,4.72
2023-06-22T04:41:44.929Z,4.03
2023-06-22T04:44:24.692Z,4.20
2023-06-22T04:47:03.240Z,4.72
2023-06-22T04:49:34.348Z,4.35
2023-06-22T04:52:02.111Z,4.40
2023-06-22T04:54:28.584Z,4.40
2023-06-22T04:56:57.508Z,4.38
2023-06-22T04:59:29.036Z,4.32
2023-06-22T05:01:56.557Z,4.05
2023-06-22T05:04:26.829Z,4.40
2023-06-22T05:06:53.645Z,4.20
2023-06-22T05:09:20.211Z,4.32
2023-06-22T05:11:47.105Z,4.40
2023-06-22T05:14:14.390Z,4.35
2023-06-22T05:16:43.039Z,4.57
2023-06-22T05:19:10.133Z,4.22
2023-06-22T05:21:36.816Z,4.65
2023-06-22T05:24:03.959Z,4.50
2023-06-22T05:26:32.017Z,4.65
2023-06-22T05:28:58.779Z,4.25
2023-06-22T05:31:25.505Z,4.65
2023-06-22T05:33:54.681Z,4.38
2023-06-22T05:36:22.472Z,4.45
2023-06-22T05:38:48.917Z,4.30
2023-06-22T05:41:15.395Z,4.25
2023-06-22T05:43:42.076Z,4.60
2023-06-22T05:46:08.678Z,4.28
2023-06-22T05:48:35.144Z,4.38
2023-06-22T05:51:01.630Z,4.30
2023-06-22T05:53:28.311Z,4.18
2023-06-22T05:55:54.838Z,4.22
2023-06-22T05:58:21.405Z,4.80
2023-06-22T06:00:48.263Z,4.28
2023-06-22T06:03:18.084Z,4.32
2023-06-22T06:05:45.973Z,4.70
2023-06-22T06:08:13.214Z,4.60
2023-06-22T06:10:40.419Z,4.90
2023-06-22T06:13:07.174Z,4.50
2023-06-22T06:15:34.771Z,4.57
2023-06-22T06:18:01.382Z,4.60
2023-06-22T06:20:31.230Z,5.00
2023-06-22T06:22:58.267Z,4.40
2023-06-22T06:25:24.833Z,4.43
2023-06-22T06:27:52.611Z,4.45
2023-06-22T06:30:19.963Z,4.22
2023-06-22T06:32:47.836Z,4.25
2023-06-22T06:35:17.413Z,4.22
2023-06-22T06:37:46.190Z,4.45
2023-06-22T06:40:14.351Z,4.60
2023-06-22T06:42:43.190Z,4.38
2023-06-22T06:45:10.597Z,4.57
2023-06-22T06:47:37.383Z,4.13
2023-06-22T06:50:05.786Z,4.78
2023-06-22T06:52:32.289Z,4.65
2023-06-22T06:54:58.761Z,4.22
2023-06-22T06:57:29.745Z,4.07
2023-06-22T06:59:57.374Z,4.03
2023-06-22T07:02:24.975Z,4.57
2023-06-22T07:04:51.717Z,4.18
2023-06-22T07:07:18.173Z,4.35
2023-06-22T07:09:44.627Z,4.07
2023-06-22T07:12:11.173Z,4.03
2023-06-22T07:14:37.661Z,4.05
2023-06-22T07:17:04.476Z,4.32
2023-06-22T07:19:32.385Z,3.83
2023-06-22T07:21:58.820Z,4.03
2023-06-22T07:24:25.825Z,3.90
2023-06-22T07:26:52.668Z,4.43
2023-06-22T07:29:20.987Z,3.80
2023-06-22T07:31:48.424Z,4.55
2023-06-22T07:34:14.978Z,3.92
2023-06-22T07:36:41.526Z,3.90
2023-06-22T07:39:08.026Z,4.18
2023-06-22T07:41:34.481Z,4.28
2023-06-22T07:44:01.054Z,4.43
2023-06-22T07:46:27.750Z,3.90
2023-06-22T07:48:56.506Z,3.63
2023-06-22T07:51:23.407Z,4.43
2023-06-22T07:53:49.890Z,4.15
2023-06-22T07:56:20.071Z,4.28
2023-06-22T07:58:47.293Z,3.70
2023-06-22T08:01:15.122Z,3.90
2023-06-22T08:03:41.813Z,3.50
2023-06-22T08:06:10.202Z,3.33
2023-06-22T08:08:37.676Z,3.72
2023-06-22T08:11:04.249Z,4.00
2023-06-22T08:13:30.750Z,3.55
2023-06-22T08:15:57.216Z,3.90
2023-06-22T08:18:23.648Z,3.90
2023-06-22T08:20:50.813Z,3.70
2023-06-22T08:23:17.555Z,3.45
2023-06-22T08:25:44.103Z,4.13
2023-06-22T08:28:10.651Z,3.58
2023-06-22T08:30:37.141Z,3.50
2023-06-22T08:33:03.990Z,3.67
2023-06-22T08:35:31.557Z,3.60
2023-06-22T08:37:59.110Z,3.40
2023-06-22T08:40:25.646Z,4.00
2023-06-22T08:42:52.164Z,3.88
2023-06-22T08:45:18.828Z,3.75
2023-06-22T08:47:45.336Z,3.53
2023-06-22T08:50:13.593Z,3.95
2023-06-22T08:52:44.255Z,3.50
2023-06-22T08:55:11.785Z,3.90
2023-06-22T08:57:40.120Z,3.90
2023-06-22T09:00:17.075Z,3.90
2023-06-22T09:02:45.024Z,3.58
2023-06-22T09:05:11.939Z,4.43
2023-06-22T09:07:38.894Z,3.65
2023-06-22T09:10:06.440Z,3.88
2023-06-22T09:12:33.820Z,3.85
2023-06-22T09:15:01.667Z,3.80
2023-06-22T09:17:28.285Z,3.85
2023-06-22T09:19:54.954Z,3.95
2023-06-22T09:22:21.821Z,3.47
2023-06-22T09:24:48.357Z,3.88
2023-06-22T09:27:14.915Z,4.00
2023-06-22T09:29:41.392Z,3.83
2023-06-22T09:32:08.333Z,4.13
2023-06-22T09:34:34.909Z,3.55
2023-06-22T09:37:04.099Z,3.25
2023-06-22T09:39:30.566Z,3.95
2023-06-22T09:42:01.355Z,3.72
2023-06-22T09:44:27.826Z,3.90
2023-06-22T09:46:54.280Z,3.95
2023-06-22T09:49:30.836Z,4.07
2023-06-22T09:52:07.563Z,4.15
2023-06-22T09:54:34.125Z,3.67
2023-06-22T09:57:00.652Z,4.10
2023-06-22T09:59:28.102Z,3.90
2023-06-22T10:01:54.709Z,4.30
2023-06-22T10:04:21.289Z,3.80
2023-06-22T10:06:48.703Z,3.97
2023-06-22T10:09:15.158Z,4.30
2023-06-22T10:11:41.636Z,3.90
2023-06-22T10:14:08.079Z,3.80
2023-06-22T10:16:36.531Z,3.75
2023-06-22T10:19:03.180Z,4.00
2023-06-22T10:21:30.129Z,4.22
2023-06-22T10:23:56.883Z,3.70
2023-06-22T10:26:23.551Z,4.05
2023-06-22T10:28:55.373Z,4.30
2023-06-22T10:31:28.547Z,3.55
2023-06-22T10:33:56.225Z,4.38
2023-06-22T10:36:23.853Z,4.30
2023-06-22T10:38:50.916Z,3.95
2023-06-22T10:41:18.087Z,4.78
2023-06-22T10:43:44.572Z,4.40
2023-06-22T10:46:11.082Z,4.07
2023-06-22T10:48:37.560Z,4.28
2023-06-22T10:51:04.013Z,4.07
2023-06-22T10:53:30.473Z,4.47
2023-06-22T10:55:57.939Z,4.30
2023-06-22T10:58:24.668Z,4.40
2023-06-22T11:00:51.147Z,5.05
2023-06-22T11:03:17.742Z,4.38
2023-06-22T11:05:44.403Z,4.47
2023-06-22T11:08:10.877Z,4.60
2023-06-22T11:10:37.543Z,4.55
2023-06-22T11:13:05.280Z,4.63
2023-06-22T11:15:31.766Z,5.25
2023-06-22T11:17:58.317Z,4.78
2023-06-22T11:20:24.823Z,5.07
2023-06-22T11:22:51.270Z,4.82
2023-06-22T11:25:17.868Z,5.10
2023-06-22T11:27:44.315Z,5.32
2023-06-22T11:30:11.118Z,5.28
2023-06-22T11:32:37.722Z,4.75
2023-06-22T11:35:04.558Z,4.97
2023-06-22T11:37:31.033Z,5.05
2023-06-22T11:40:05.993Z,5.15
2023-06-22T11:42:33.442Z,5.22
2023-06-22T11:44:59.996Z,5.70
2023-06-22T11:47:26.576Z,5.40
2023-06-22T11:49:53.090Z,5.05
2023-06-22T11:52:20.397Z,4.88
2023-06-22T11:54:46.913Z,5.15
2023-06-22T11:57:13.734Z,5.22
2023-06-22T11:59:40.268Z,6.10
2023-06-22T12:02:08.527Z,5.82
2023-06-22T12:04:35.111Z,6.13
2023-06-22T12:07:01.742Z,5.40
2023-06-22T12:09:28.221Z,6.20
2023-06-22T12:11:54.819Z,6.13
2023-06-22T12:14:21.371Z,6.10
2023-06-22T12:16:47.847Z,6.15
2023-06-22T12:19:14.280Z,6.15
2023-06-22T12:21:41.836Z,5.93
2023-06-22T12:24:08.426Z,6.78
2023-06-22T12:26:34.851Z,6.43
2023-06-22T12:29:01.310Z,6.50
2023-06-22T12:31:27.775Z,6.65
2023-06-22T12:33:54.384Z,6.50
2023-06-22T12:36:20.863Z,6.40
2023-06-22T12:38:47.338Z,6.80
2023-06-22T12:41:13.856Z,6.00
2023-06-22T12:43:41.234Z,6.05
2023-06-22T12:46:07.717Z,6.45
2023-06-22T12:48:34.179Z,5.70
2023-06-22T12:51:00.655Z,5.80
2023-06-22T12:53:28.366Z,6.68
2023-06-22T12:55:55.255Z,6.10
2023-06-22T12:58:21.722Z,6.50
2023-06-22T13:00:48.196Z,5.93
2023-06-22T13:03:14.952Z,5.90
2023-06-22T13:05:41.537Z,6.10
2023-06-22T13:08:12.678Z,6.25
2023-06-22T13:10:39.650Z,6.07
2023-06-22T13:13:06.129Z,6.03
2023-06-22T13:15:32.935Z,5.53
2023-06-22T13:18:00.078Z,6.10
2023-06-22T13:20:26.704Z,5.70
2023-06-22T13:22:54.660Z,5.68
2023-06-22T13:25:24.088Z,6.28
2023-06-22T13:27:50.624Z,5.70
2023-06-22T13:30:17.185Z,6.43
2023-06-22T13:32:44.044Z,5.93
2023-06-22T13:35:12.036Z,5.95
2023-06-22T13:37:38.566Z,5.97
2023-06-22T13:40:08.953Z,5.90
2023-06-22T13:42:35.661Z,5.90
2023-06-22T13:45:02.923Z,5.68
2023-06-22T13:47:31.352Z,6.30
2023-06-22T13:49:58.864Z,5.10
2023-06-22T13:52:25.844Z,5.82
2023-06-22T13:54:52.466Z,6.00
2023-06-22T13:57:18.938Z,5.68
2023-06-22T13:59:45.440Z,5.22
2023-06-22T14:02:11.889Z,5.80
2023-06-22T14:04:39.318Z,5.53
2023-06-22T14:07:05.907Z,5.47
2023-06-22T14:09:32.342Z,6.15
2023-06-22T14:11:58.829Z,5.85
2023-06-22T14:14:25.465Z,5.47
2023-06-22T14:16:51.994Z,5.25
2023-06-22T14:19:19.500Z,5.45
2023-06-22T14:21:46.070Z,5.20
2023-06-22T14:24:12.559Z,5.35
2023-06-22T14:26:39.056Z,5.38
2023-06-22T14:29:05.501Z,5.63
2023-06-22T14:31:32.029Z,5.80
2023-06-22T14:33:58.600Z,5.30
2023-06-22T14:36:25.098Z,5.10
2023-06-22T14:38:51.594Z,5.13
2023-06-22T14:41:18.871Z,6.07
2023-06-22T14:43:50.091Z,5.20
2023-06-22T14:46:18.633Z,5.63
2023-06-22T14:48:45.931Z,5.25
2023-06-22T14:51:16.530Z,5.47
2023-06-22T14:53:46.249Z,5.20
2023-06-22T14:56:13.885Z,5.68
2023-06-22T14:58:42.166Z,5.82
2023-06-22T15:01:09.537Z,6.07
2023-06-22T15:03:37.051Z,6.10
2023-06-22T15:06:04.937Z,6.55
2023-06-22T15:08:31.486Z,6.95
2023-06-22T15:11:02.643Z,6.53
2023-06-22T15:13:31.279Z,6.10
2023-06-22T15:15:57.768Z,6.10
2023-06-22T15:18:24.279Z,5.95
2023-06-22T15:20:50.765Z,6.47
2023-06-22T15:23:18.401Z,5.88
2023-06-22T15:25:45.935Z,6.28
2023-06-22T15:28:13.010Z,5.82
2023-06-22T15:30:39.703Z,5.88
2023-06-22T15:33:06.278Z,6.05
2023-06-22T15:35:32.830Z,5.95
2023-06-22T15:38:00.490Z,6.53
2023-06-22T15:40:27.010Z,5.82
2023-06-22T15:42:54.176Z,6.53
2023-06-22T15:45:20.977Z,6.57
2023-06-22T15:47:47.615Z,6.10
2023-06-22T15:50:14.469Z,5.85
2023-06-22T15:52:41.933Z,5.90
2023-06-22T15:55:10.465Z,6.22
2023-06-22T15:57:37.029Z,6.18
2023-06-22T16:00:05.654Z,6.03
2023-06-22T16:02:33.872Z,6.07
2023-06-22T16:05:02.099Z,6.07
2023-06-22T16:07:28.592Z,5.95
2023-06-22T16:09:55.277Z,5.80
2023-06-22T16:12:21.784Z,6.45
2023-06-22T16:14:48.213Z,6.13
2023-06-22T16:17:14.704Z,5.85
2023-06-22T16:19:41.144Z,5.90
2023-06-22T16:22:07.665Z,5.85
2023-06-22T16:24:34.137Z,6.63
2023-06-22T16:27:00.612Z,5.85
2023-06-22T16:29:27.156Z,5.75
2023-06-22T16:31:53.621Z,5.75
2023-06-22T16:34:20.132Z,6.20
2023-06-22T16:36:46.583Z,5.80
2023-06-22T16:39:13.074Z,6.05
2023-06-22T16:41:39.513Z,6.30
2023-06-22T16:44:07.602Z,6.38
2023-06-22T16:46:35.525Z,6.20
2023-06-22T16:49:02.095Z,6.30
2023-06-22T16:51:28.526Z,6.47
2023-06-22T16:53:59.465Z,6.63
2023-06-22T16:56:27.562Z,6.05
2023-06-22T16:59:06.971Z,6.80
2023-06-22T17:01:35.618Z,6.40
2023-06-22T17:04:10.032Z,6.78
2023-06-22T17:06:42.591Z,7.03
2023-06-22T17:09:13.999Z,7.57
2023-06-22T17:11:41.287Z,7.90
2023-06-22T17:14:07.892Z,7.95
2023-06-22T17:16:36.245Z,7.45
2023-06-22T17:19:06.938Z,7.82
2023-06-22T17:21:34.230Z,8.23
2023-06-22T17:24:02.135Z,7.35
2023-06-22T17:26:28.653Z,8.20
2023-06-22T17:29:01.975Z,8.15
2023-06-22T17:31:44.631Z,8.13
2023-06-22T17:34:16.024Z,8.10
2023-06-22T17:36:50.873Z,8.75
2023-06-22T17:39:22.590Z,9.15
2023-06-22T17:41:50.456Z,8.38
2023-06-22T17:44:24.254Z,8.50
2023-06-22T17:46:59.234Z,8.35
2023-06-22T17:49:30.888Z,7.80
2023-06-22T17:51:57.905Z,8.20
2023-06-22T17:54:31.261Z,8.60
2023-06-22T17:57:17.580Z,7.57
2023-06-22T17:59:51.279Z,8.02
2023-06-22T18:02:25.230Z,7.40
2023-06-22T18:07:18.427Z,5.72
2023-06-22T18:09:46.392Z,5.82
2023-06-22T18:12:13.803Z,5.32
2023-06-22T18:14:42.727Z,4.75
2023-06-22T18:17:09.812Z,5.05
2023-06-22T18:19:38.984Z,4.32
2023-06-22T18:22:06.394Z,4.47
2023-06-22T18:24:34.339Z,4.45
2023-06-22T18:27:03.449Z,4.80
2023-06-22T18:29:31.759Z,3.80
2023-06-22T18:31:58.345Z,4.00
2023-06-22T18:34:26.312Z,3.63
2023-06-22T18:36:55.854Z,3.40
2023-06-22T18:39:23.606Z,3.35
2023-06-22T18:41:56.207Z,4.22
2023-06-22T18:44:27.272Z,3.75
2023-06-22T18:46:58.575Z,3.65
2023-06-22T18:49:26.776Z,3.47
2023-06-22T18:51:56.266Z,3.58
2023-06-22T18:54:36.229Z,3.78
2023-06-22T18:57:12.697Z,3.60
2023-06-22T18:59:43.965Z,3.70
2023-06-22T19:02:13.781Z,3.65
2023-06-22T19:04:43.149Z,3.72
2023-06-22T19:07:10.417Z,4.00
2023-06-22T19:09:37.389Z,3.20
2023-06-22T19:12:20.885Z,3.63
2023-06-22T19:15:16.859Z,3.60
2023-06-22T19:17:44.146Z,3.78
2023-06-22T19:20:12.484Z,4.00
2023-06-22T19:22:46.879Z,3.90
2023-06-22T19:25:20.897Z,3.67
2023-06-22T19:32:50.094Z,3.85
2023-06-22T19:35:19.391Z,3.63
2023-06-22T19:37:47.091Z,4.10
2023-06-22T19:40:15.247Z,3.97
2023-06-22T19:42:44.957Z,4.43
2023-06-22T19:45:17.671Z,3.95
2023-06-22T19:47:46.587Z,3.55
2023-06-22T19:50:13.419Z,4.10
2023-06-22T19:52:42.052Z,3.83
2023-06-22T19:55:10.514Z,3.85
2023-06-22T19:57:37.950Z,4.00
2023-06-22T20:00:13.281Z,3.70
2023-06-22T20:02:44.622Z,3.70
2023-06-22T20:05:13.758Z,3.92
2023-06-22T20:07:42.998Z,4.00
2023-06-22T20:10:15.388Z,3.95
2023-06-22T20:12:42.139Z,3.95
2023-06-22T20:15:28.102Z,4.13
2023-06-22T20:18:14.110Z,3.58
2023-06-22T20:20:46.046Z,3.70
2023-06-22T20:23:18.105Z,3.85
2023-06-22T20:25:46.270Z,4.03
2023-06-22T20:28:16.736Z,4.00
2023-06-22T20:31:07.393Z,3.75
2023-06-22T20:33:35.084Z,4.07
2023-06-22T20:36:02.314Z,3.97
2023-06-22T20:38:29.521Z,4.53
2023-06-22T20:40:56.902Z,4.60
2023-06-22T20:43:24.813Z,4.97
2023-06-22T20:45:57.371Z,5.22
2023-06-22T20:48:38.015Z,4.72
2023-06-22T20:51:05.685Z,4.32
2023-06-22T20:53:32.820Z,4.18
2023-06-22T20:55:59.690Z,4.50
2023-06-22T20:58:26.149Z,4.70
2023-06-22T21:00:52.617Z,4.40
2023-06-22T21:03:19.223Z,4.10
2023-06-22T21:05:45.900Z,4.72
2023-06-22T21:08:12.395Z,4.18
2023-06-22T21:10:38.825Z,4.57
2023-06-22T21:13:05.295Z,4.65
2023-06-22T21:15:31.994Z,4.13
2023-06-22T21:17:58.655Z,4.90
2023-06-22T21:20:25.148Z,4.28
2023-06-22T21:22:51.625Z,4.85
2023-06-22T21:25:18.082Z,4.82
2023-06-22T21:27:44.610Z,4.45
2023-06-22T21:30:12.842Z,4.63
2023-06-22T21:32:42.849Z,4.72
2023-06-22T21:35:13.035Z,4.40
2023-06-22T21:37:39.955Z,4.85
2023-06-22T21:40:07.915Z,4.82
2023-06-22T21:42:34.485Z,5.00
2023-06-22T21:45:01.265Z,4.68
2023-06-22T21:47:27.835Z,5.18
2023-06-22T21:49:54.380Z,5.38
2023-06-22T21:52:21.208Z,4.47
2023-06-22T21:54:48.091Z,4.28
2023-06-22T21:57:14.661Z,4.70
2023-06-22T21:59:41.212Z,4.60
2023-06-22T22:02:07.904Z,4.55
2023-06-22T22:04:34.445Z,4.88
2023-06-22T22:07:00.903Z,4.97
2023-06-22T22:09:27.340Z,4.38
2023-06-22T22:11:53.808Z,5.10
2023-06-22T22:14:20.371Z,5.10
2023-06-22T22:16:47.209Z,5.00
2023-06-22T22:19:15.780Z,4.80
2023-06-22T22:21:43.585Z,4.63
2023-06-22T22:24:10.413Z,4.97
2023-06-22T22:26:36.920Z,5.30
2023-06-22T22:29:06.390Z,4.50
2023-06-22T22:31:39.569Z,4.75
2023-06-22T22:34:07.201Z,4.30
2023-06-22T22:36:34.282Z,4.38
2023-06-22T22:39:00.869Z,4.35
2023-06-22T22:41:27.991Z,4.68
2023-06-22T22:43:59.166Z,4.63
2023-06-22T22:46:26.851Z,4.13
2023-06-22T22:48:53.391Z,3.92
2023-06-22T22:51:20.044Z,4.32
2023-06-22T22:53:46.736Z,4.57
2023-06-22T22:56:13.357Z,4.32
2023-06-22T22:58:39.866Z,4.20
2023-06-22T23:01:06.446Z,4.05
2023-06-22T23:03:33.009Z,4.60
2023-06-22T23:05:59.975Z,4.20
2023-06-22T23:08:27.617Z,4.68
2023-06-22T23:10:54.504Z,4.40
2023-06-22T23:13:21.036Z,4.18
2023-06-22T23:15:47.508Z,4.40
2023-06-22T23:18:14.047Z,4.03
2023-06-22T23:20:40.496Z,4.45
2023-06-22T23:23:06.967Z,4.30
2023-06-22T23:25:35.392Z,4.22
2023-06-22T23:28:02.439Z,4.82
2023-06-22T23:30:32.412Z,4.10
2023-06-22T23:32:58.936Z,4.43
2023-06-22T23:35:25.660Z,4.57
2023-06-22T23:37:53.676Z,4.53
2023-06-22T23:40:20.608Z,4.60
2023-06-22T23:42:48.516Z,4.82
2023-06-22T23:45:22.807Z,4.40
2023-06-22T23:47:50.478Z,4.63
2023-06-22T23:50:19.071Z,4.40
2023-06-22T23:52:52.310Z,4.63
2023-06-22T23:55:24.221Z,4.10
2023-06-22T23:57:58.154Z,4.80
